Terminal Aerodrome Forecast
Issued by NWS

Home | Current Version | Previous Version | Graphics & Text | Print | Product List | Glossary On
Versions: 1 2 3 4 5 6 7 8 9 10 11 12
000
FTUS42 KMHX 270540
TAFISO
TAF
KISO 270540Z 2706/2806 02005KT P6SM BKN025 OVC040
     FM270900 VRB03KT 4SM BR OVC008
     FM271600 05008KT P6SM SCT015 BKN040
     FM271800 05009KT P6SM VCTS BKN050CB
      AMD LTD TO CLD VIS AND WIND=

USA.gov is the U.S. government's official web portal to all federal, state and local government web resources and services.